Time,TemperatureF,DewpointF,PressureIn,WindDirection,WindDirectionDegrees,WindSpeedMPH,WindSpeedGustMPH,Humidity,HourlyPrecipIn,Conditions,Clouds,dailyrainin,SoftwareType,DateUTC
2013-02-05 00:00:00,5.4,-0.6,29.43,SSW,203,1.3,3.1,76,0.00,,,0.00,WUHU216HW,2013-02-05 06:00:00,
2013-02-05 00:05:00,5.4,-0.9,29.43,SSW,203,1.6,2.2,75,0.00,,,0.00,WUHU216HW,2013-02-05 06:05:00,
2013-02-05 00:10:00,5.4,-0.9,29.42,South,180,2.7,2.7,75,0.00,,,0.00,WUHU216HW,2013-02-05 06:10:00,
2013-02-05 00:15:00,5.0,-1.3,29.42,SSW,203,1.8,2.7,75,0.00,,,0.00,WUHU216HW,2013-02-05 06:15:00,
2013-02-05 00:20:00,4.7,-1.6,29.42,SSW,203,2.0,2.7,75,0.00,,,0.00,WUHU216HW,2013-02-05 06:20:00,
2013-02-05 00:25:00,4.7,-1.6,29.42,SSW,203,2.7,2.7,75,0.00,,,0.00,WUHU216HW,2013-02-05 06:25:00,
2013-02-05 00:30:00,4.1,-2.2,29.42,SSW,203,2.9,3.1,75,0.00,,,0.00,WUHU216HW,2013-02-05 06:30:00,
2013-02-05 00:35:00,4.0,-2.2,29.42,South,180,1.3,3.1,75,0.00,,,0.00,WUHU216HW,2013-02-05 06:35:00,
2013-02-05 00:40:00,4.1,-2.2,29.41,South,180,1.8,3.1,75,0.00,,,0.00,WUHU216HW,2013-02-05 06:40:00,
2013-02-05 00:45:00,4.0,-2.2,29.41,South,180,0.4,2.0,75,0.00,,,0.00,WUHU216HW,2013-02-05 06:45:00,
2013-02-05 00:50:00,4.0,-2.2,29.41,SSW,203,0.4,2.0,75,0.00,,,0.00,WUHU216HW,2013-02-05 06:50:00,
2013-02-05 00:55:00,3.8,-2.4,29.41,SSE,158,0.4,1.8,75,0.00,,,0.00,WUHU216HW,2013-02-05 06:55:00,
2013-02-05 01:00:00,3.4,-2.8,29.40,SSE,158,1.3,1.8,75,0.00,,,0.00,WUHU216HW,2013-02-05 07:00:00,
2013-02-05 01:05:00,2.9,-3.3,29.41,South,180,1.8,2.7,75,0.00,,,0.00,WUHU216HW,2013-02-05 07:05:00,
2013-02-05 01:10:00,2.2,-4.3,29.40,South,180,2.7,2.9,74,0.00,,,0.00,WUHU216HW,2013-02-05 07:10:00,
2013-02-05 01:15:00,2.0,-4.2,29.40,SSW,203,2.2,2.9,75,0.00,,,0.00,WUHU216HW,2013-02-05 07:15:00,
2013-02-05 01:20:00,2.0,-4.2,29.40,SSW,203,2.5,2.7,75,0.00,,,0.00,WUHU216HW,2013-02-05 07:20:00,
2013-02-05 01:25:00,2.2,-4.0,29.40,SSW,203,1.1,2.5,75,0.00,,,0.00,WUHU216HW,2013-02-05 07:25:00,
2013-02-05 01:30:00,2.2,-3.8,29.40,SSW,203,1.8,2.5,76,0.00,,,0.00,WUHU216HW,2013-02-05 07:30:00,
2013-02-05 01:35:00,2.2,-3.8,29.40,SSW,203,1.6,2.2,76,0.00,,,0.00,WUHU216HW,2013-02-05 07:35:00,
2013-02-05 01:40:00,2.2,-3.8,29.40,SSW,203,2.2,2.2,76,0.00,,,0.00,WUHU216HW,2013-02-05 07:40:00,
2013-02-05 01:45:00,2.2,-3.8,29.40,SSW,203,2.5,2.5,76,0.00,,,0.00,WUHU216HW,2013-02-05 07:45:00,
2013-02-05 01:50:00,2.0,-4.0,29.40,SSW,203,2.5,2.7,76,0.00,,,0.00,WUHU216HW,2013-02-05 07:50:00,
2013-02-05 01:55:00,1.8,-4.1,29.39,SSW,203,2.0,2.7,76,0.00,,,0.00,WUHU216HW,2013-02-05 07:55:00,
2013-02-05 02:00:00,2.0,-4.0,29.39,South,180,2.2,2.5,76,0.00,,,0.00,WUHU216HW,2013-02-05 08:00:00,
2013-02-05 02:05:00,2.0,-4.0,29.39,South,180,1.6,2.5,76,0.00,,,0.00,WUHU216HW,2013-02-05 08:05:00,
2013-02-05 02:10:00,2.0,-4.0,29.38,SSE,158,2.2,2.9,76,0.00,,,0.00,WUHU216HW,2013-02-05 08:10:00,
2013-02-05 02:15:00,2.0,-4.0,29.38,South,180,1.8,2.9,76,0.00,,,0.00,WUHU216HW,2013-02-05 08:15:00,
2013-02-05 02:20:00,1.8,-4.1,29.38,SSW,203,2.5,2.9,76,0.00,,,0.00,WUHU216HW,2013-02-05 08:20:00,
2013-02-05 02:25:00,1.4,-4.5,29.38,SSW,203,4.0,4.7,76,0.00,,,0.00,WUHU216HW,2013-02-05 08:25:00,
2013-02-05 02:30:00,1.3,-4.4,29.38,SW,225,5.4,5.4,77,0.00,,,0.00,WUHU216HW,2013-02-05 08:30:00,
2013-02-05 02:35:00,2.0,-3.7,29.38,South,180,4.0,5.4,77,0.00,,,0.00,WUHU216HW,2013-02-05 08:35:00,
2013-02-05 02:40:00,2.7,-2.4,29.38,SSW,203,3.6,6.0,79,0.00,,,0.00,WUHU216HW,2013-02-05 08:40:00,
2013-02-05 02:45:00,3.2,-1.9,29.38,SW,225,4.0,6.0,79,0.00,,,0.00,WUHU216HW,2013-02-05 08:45:00,
2013-02-05 02:50:00,3.6,-1.5,29.38,SSW,203,2.5,4.7,79,0.00,,,0.00,WUHU216HW,2013-02-05 08:50:00,
2013-02-05 02:55:00,4.0,-1.2,29.37,SW,225,3.6,4.7,79,0.00,,,0.00,WUHU216HW,2013-02-05 08:55:00,
2013-02-05 03:00:00,4.1,-0.7,29.37,SW,225,4.9,4.9,80,0.00,,,0.00,WUHU216HW,2013-02-05 09:00:00,
2013-02-05 03:05:00,4.7,-0.2,29.38,SW,225,2.5,4.9,80,0.00,,,0.00,WUHU216HW,2013-02-05 09:05:00,
2013-02-05 03:10:00,4.9,-0.3,29.38,SW,225,0.9,4.9,79,0.00,,,0.00,WUHU216HW,2013-02-05 09:10:00,
2013-02-05 03:15:00,5.2,0.4,29.38,WSW,248,2.7,4.0,80,0.00,,,0.00,WUHU216HW,2013-02-05 09:15:00,
2013-02-05 03:20:00,5.8,0.9,29.38,SW,225,2.0,4.0,80,0.00,,,0.00,WUHU216HW,2013-02-05 09:20:00,
2013-02-05 03:25:00,6.1,1.3,29.38,WSW,248,2.0,3.6,80,0.00,,,0.00,WUHU216HW,2013-02-05 09:25:00,
2013-02-05 03:30:00,6.5,1.4,29.38,WSW,248,3.4,3.6,79,0.00,,,0.00,WUHU216HW,2013-02-05 09:30:00,
2013-02-05 03:35:00,6.8,1.7,29.38,SW,225,4.0,5.4,79,0.00,,,0.00,WUHU216HW,2013-02-05 09:35:00,
2013-02-05 03:40:00,7.2,2.1,29.38,WSW,248,4.5,5.4,79,0.00,,,0.00,WUHU216HW,2013-02-05 09:40:00,
2013-02-05 03:45:00,7.6,2.2,29.37,SW,225,4.0,5.1,78,0.00,,,0.00,WUHU216HW,2013-02-05 09:45:00,
2013-02-05 03:50:00,7.6,2.2,29.37,South,180,2.9,5.1,78,0.00,,,0.00,WUHU216HW,2013-02-05 09:50:00,
2013-02-05 03:55:00,7.6,2.2,29.36,SSW,203,4.5,5.6,78,0.00,,,0.00,WUHU216HW,2013-02-05 09:55:00,
2013-02-05 04:00:00,7.9,2.8,29.36,SSW,203,4.9,5.6,79,0.00,,,0.00,WUHU216HW,2013-02-05 10:00:00,
2013-02-05 04:05:00,8.3,3.4,29.36,SSW,203,5.8,7.4,80,0.00,,,0.00,WUHU216HW,2013-02-05 10:05:00,
2013-02-05 04:10:00,8.6,3.5,29.36,SSW,203,2.9,7.4,79,0.00,,,0.00,WUHU216HW,2013-02-05 10:10:00,
2013-02-05 04:15:00,8.8,4.0,29.36,SW,225,4.3,5.8,80,0.00,,,0.00,WUHU216HW,2013-02-05 10:15:00,
2013-02-05 04:20:00,9.2,4.2,29.36,SW,225,5.8,5.8,80,0.00,,,0.00,WUHU216HW,2013-02-05 10:20:00,
2013-02-05 04:25:00,9.7,4.8,29.37,WSW,248,7.6,7.6,80,0.00,,,0.00,WUHU216HW,2013-02-05 10:25:00,
2013-02-05 04:30:00,10.1,5.0,29.37,SW,225,4.7,7.6,80,0.00,,,0.00,WUHU216HW,2013-02-05 10:30:00,
2013-02-05 04:35:00,10.1,5.0,29.36,SSW,203,4.0,7.6,80,0.00,,,0.00,WUHU216HW,2013-02-05 10:35:00,
2013-02-05 04:40:00,10.3,5.2,29.36,SW,225,5.1,6.3,80,0.00,,,0.00,WUHU216HW,2013-02-05 10:40:00,
2013-02-05 04:45:00,10.3,5.2,29.35,SSW,203,7.6,7.6,80,0.00,,,0.00,WUHU216HW,2013-02-05 10:45:00,
2013-02-05 04:50:00,10.4,5.4,29.35,SSW,203,5.8,7.8,80,0.00,,,0.00,WUHU216HW,2013-02-05 10:50:00,
2013-02-05 04:55:00,10.4,5.7,29.35,SW,225,7.2,7.8,81,0.00,,,0.00,WUHU216HW,2013-02-05 10:55:00,
2013-02-05 05:00:00,10.6,5.9,29.34,SSW,203,8.3,8.3,81,0.00,,,0.00,WUHU216HW,2013-02-05 11:00:00,
2013-02-05 05:05:00,10.6,5.9,29.34,SSW,203,7.6,9.4,81,0.00,,,0.00,WUHU216HW,2013-02-05 11:05:00,
2013-02-05 05:10:00,10.4,5.7,29.33,SW,225,8.3,9.4,81,0.00,,,0.00,WUHU216HW,2013-02-05 11:10:00,
2013-02-05 05:15:00,10.3,5.2,29.32,SSW,203,8.5,9.2,80,0.00,,,0.00,WUHU216HW,2013-02-05 11:15:00,
2013-02-05 05:20:00,10.1,5.3,29.32,SSW,203,8.5,10.1,81,0.00,,,0.00,WUHU216HW,2013-02-05 11:20:00,
2013-02-05 05:25:00,10.1,5.3,29.32,South,180,8.3,10.7,81,0.00,,,0.00,WUHU216HW,2013-02-05 11:25:00,
2013-02-05 05:30:00,10.1,5.6,29.32,South,180,7.2,10.7,82,0.00,,,0.00,WUHU216HW,2013-02-05 11:30:00,
2013-02-05 05:35:00,10.1,5.6,29.31,SSW,203,9.2,9.2,82,0.00,,,0.00,WUHU216HW,2013-02-05 11:35:00,
2013-02-05 05:40:00,10.1,5.9,29.31,SSW,203,6.5,9.2,83,0.00,,,0.00,WUHU216HW,2013-02-05 11:40:00,
2013-02-05 05:45:00,10.3,6.0,29.30,SSE,158,6.9,9.2,83,0.00,,,0.00,WUHU216HW,2013-02-05 11:45:00,
2013-02-05 05:50:00,10.3,6.0,29.30,South,180,10.7,10.7,83,0.00,,,0.00,WUHU216HW,2013-02-05 11:50:00,
2013-02-05 05:55:00,10.4,6.5,29.30,SSW,203,9.6,12.1,84,0.00,,,0.00,WUHU216HW,2013-02-05 11:55:00,
2013-02-05 06:00:00,10.4,6.5,29.30,SSW,203,8.5,12.1,84,0.00,,,0.00,WUHU216HW,2013-02-05 12:00:00,
2013-02-05 06:05:00,10.6,6.9,29.30,SSW,203,6.3,11.9,85,0.00,,,0.00,WUHU216HW,2013-02-05 12:05:00,
2013-02-05 06:10:00,10.8,7.4,29.30,SSW,203,9.4,11.2,86,0.00,,,0.00,WUHU216HW,2013-02-05 12:10:00,
2013-02-05 06:15:00,11.0,7.6,29.30,SW,225,9.8,11.0,86,0.00,,,0.00,WUHU216HW,2013-02-05 12:15:00,
2013-02-05 06:20:00,11.2,8.0,29.30,SSW,203,10.3,11.9,87,0.00,,,0.00,WUHU216HW,2013-02-05 12:20:00,
2013-02-05 06:25:00,11.3,7.9,29.30,South,180,12.5,13.6,86,0.00,,,0.00,WUHU216HW,2013-02-05 12:25:00,
2013-02-05 06:30:00,11.3,7.9,29.30,SW,225,7.6,14.8,86,0.00,,,0.00,WUHU216HW,2013-02-05 12:30:00,
2013-02-05 06:35:00,11.3,8.2,29.30,SSW,203,9.2,14.8,87,0.00,,,0.00,WUHU216HW,2013-02-05 12:35:00,
2013-02-05 06:40:00,11.3,8.2,29.30,SW,225,11.6,12.5,87,0.00,,,0.00,WUHU216HW,2013-02-05 12:40:00,
2013-02-05 06:45:00,11.3,8.2,29.30,SSW,203,10.5,12.8,87,0.00,,,0.00,WUHU216HW,2013-02-05 12:45:00,
2013-02-05 06:50:00,11.3,8.2,29.30,SSW,203,10.5,12.8,87,0.00,,,0.00,WUHU216HW,2013-02-05 12:50:00,
2013-02-05 06:55:00,11.5,8.4,29.30,SW,225,8.7,11.2,87,0.00,,,0.00,WUHU216HW,2013-02-05 12:55:00,
2013-02-05 07:00:00,11.7,8.6,29.30,SSW,203,12.8,12.8,87,0.00,,,0.00,WUHU216HW,2013-02-05 13:00:00,
2013-02-05 07:05:00,11.9,8.7,29.29,SSW,203,12.1,13.6,87,0.00,,,0.00,WUHU216HW,2013-02-05 13:05:00,
2013-02-05 07:10:00,11.9,8.7,29.29,SSW,203,11.6,13.9,87,0.00,,,0.00,WUHU216HW,2013-02-05 13:10:00,
2013-02-05 07:15:00,11.9,8.7,29.29,SSW,203,9.4,13.9,87,0.00,,,0.00,WUHU216HW,2013-02-05 13:15:00,
2013-02-05 07:20:00,12.1,8.9,29.30,South,180,8.3,11.9,87,0.00,,,0.00,WUHU216HW,2013-02-05 13:20:00,
2013-02-05 07:25:00,12.1,8.9,29.30,SW,225,7.2,11.9,87,0.00,,,0.00,WUHU216HW,2013-02-05 13:25:00,
2013-02-05 07:30:00,12.1,8.9,29.30,SSW,203,9.4,11.4,87,0.00,,,0.00,WUHU216HW,2013-02-05 13:30:00,
2013-02-05 07:35:00,12.2,9.1,29.29,SSW,203,8.3,11.4,87,0.00,,,0.00,WUHU216HW,2013-02-05 13:35:00,
2013-02-05 07:40:00,12.2,9.1,29.29,SSW,203,9.4,11.0,87,0.00,,,0.00,WUHU216HW,2013-02-05 13:40:00,
2013-02-05 07:45:00,12.2,8.8,29.28,SSW,203,8.5,10.5,86,0.00,,,0.00,WUHU216HW,2013-02-05 13:45:00,
2013-02-05 07:50:00,12.4,9.3,29.28,SSW,203,10.5,12.8,87,0.00,,,0.00,WUHU216HW,2013-02-05 13:50:00,
2013-02-05 08:00:00,12.8,9.6,29.27,SW,225,13.0,13.0,87,0.00,,,0.00,WUHU216HW,2013-02-05 14:00:00,
2013-02-05 08:05:00,12.8,9.6,29.27,SW,225,13.0,13.0,87,0.00,,,0.00,WUHU216HW,2013-02-05 14:05:00,
2013-02-05 08:10:00,12.8,9.6,29.27,SW,225,13.0,13.0,87,0.00,,,0.00,WUHU216HW,2013-02-05 14:10:00,
2013-02-05 08:30:00,13.7,10.5,29.28,SSW,203,10.7,10.7,87,0.00,,,0.00,WUHU216HW,2013-02-05 14:30:00,
2013-02-05 08:35:00,13.9,10.7,29.27,SW,225,12.8,12.8,87,0.00,,,0.00,WUHU216HW,2013-02-05 14:35:00,
2013-02-05 08:40:00,14.2,11.1,29.28,SSW,203,9.8,12.8,87,0.00,,,0.00,WUHU216HW,2013-02-05 14:40:00,
2013-02-05 08:45:00,14.2,10.8,29.28,SW,225,8.9,12.8,86,0.00,,,0.00,WUHU216HW,2013-02-05 14:45:00,
2013-02-05 08:50:00,14.4,11.0,29.28,SSW,203,9.2,11.9,86,0.00,,,0.00,WUHU216HW,2013-02-05 14:50:00,
2013-02-05 08:55:00,14.6,11.2,29.28,SSW,203,9.2,11.9,86,0.00,,,0.00,WUHU216HW,2013-02-05 14:55:00,
2013-02-05 09:00:00,14.8,11.5,29.28,SW,225,11.2,11.4,87,0.00,,,0.00,WUHU216HW,2013-02-05 15:00:00,
2013-02-05 09:05:00,14.8,11.5,29.27,SSW,203,10.7,11.4,87,0.00,,,0.00,WUHU216HW,2013-02-05 15:05:00,
2013-02-05 09:10:00,15.1,11.9,29.27,SSW,203,10.1,12.5,87,0.00,,,0.00,WUHU216HW,2013-02-05 15:10:00,
2013-02-05 09:15:00,15.3,12.1,29.27,South,180,7.6,12.5,87,0.00,,,0.00,WUHU216HW,2013-02-05 15:15:00,
2013-02-05 09:20:00,15.5,12.3,29.27,SSW,203,6.9,10.1,87,0.00,,,0.00,WUHU216HW,2013-02-05 15:20:00,
2013-02-05 09:25:00,15.7,12.4,29.27,SW,225,4.3,9.2,87,0.00,,,0.00,WUHU216HW,2013-02-05 15:25:00,
2013-02-05 09:30:00,15.8,12.6,29.27,SSW,203,5.6,10.5,87,0.00,,,0.00,WUHU216HW,2013-02-05 15:30:00,
2013-02-05 09:35:00,16.0,12.8,29.26,SSW,203,11.6,11.6,87,0.00,,,0.00,WUHU216HW,2013-02-05 15:35:00,
2013-02-05 09:40:00,16.2,13.1,29.26,SSW,203,8.5,11.6,88,0.00,,,0.00,WUHU216HW,2013-02-05 15:40:00,
2013-02-05 09:45:00,16.2,13.4,29.26,SSW,203,11.0,12.8,89,0.00,,,0.00,WUHU216HW,2013-02-05 15:45:00,
2013-02-05 09:50:00,16.2,13.4,29.26,SSW,203,10.3,12.8,89,0.00,,,0.00,WUHU216HW,2013-02-05 15:50:00,
2013-02-05 09:55:00,16.4,13.6,29.26,SSW,203,6.7,11.6,89,0.00,,,0.00,WUHU216HW,2013-02-05 15:55:00,
2013-02-05 10:00:00,16.7,14.0,29.27,SW,225,8.9,11.6,89,0.00,,,0.00,WUHU216HW,2013-02-05 16:00:00,
2013-02-05 10:05:00,16.9,14.1,29.28,SW,225,5.6,9.2,89,0.00,,,0.00,WUHU216HW,2013-02-05 16:05:00,
2013-02-05 10:10:00,17.3,14.5,29.28,SW,225,4.0,9.2,89,0.00,,,0.00,WUHU216HW,2013-02-05 16:10:00,
2013-02-05 10:15:00,17.6,14.6,29.28,SW,225,6.3,8.7,88,0.00,,,0.00,WUHU216HW,2013-02-05 16:15:00,
2013-02-05 10:20:00,17.8,14.8,29.28,WSW,248,6.3,6.5,88,0.00,,,0.00,WUHU216HW,2013-02-05 16:20:00,
2013-02-05 10:25:00,18.2,15.1,29.28,SSW,203,4.3,7.6,88,0.00,,,0.00,WUHU216HW,2013-02-05 16:25:00,
2013-02-05 10:30:00,18.4,15.3,29.28,SW,225,4.5,7.6,88,0.00,,,0.00,WUHU216HW,2013-02-05 16:30:00,
2013-02-05 10:35:00,18.4,15.0,29.28,SW,225,3.4,6.9,87,0.00,,,0.00,WUHU216HW,2013-02-05 16:35:00,
2013-02-05 10:40:00,18.7,15.4,29.29,SSW,203,5.1,6.9,87,0.00,,,0.00,WUHU216HW,2013-02-05 16:40:00,
2013-02-05 10:45:00,19.4,16.1,29.29,SW,225,4.0,6.0,87,0.00,,,0.00,WUHU216HW,2013-02-05 16:45:00,
2013-02-05 10:50:00,19.8,16.2,29.28,SSW,203,6.3,6.7,86,0.00,,,0.00,WUHU216HW,2013-02-05 16:50:00,
2013-02-05 10:55:00,20.0,16.4,29.28,SW,225,5.4,6.7,86,0.00,,,0.00,WUHU216HW,2013-02-05 16:55:00,
2013-02-05 11:00:00,20.3,16.7,29.28,South,180,4.3,6.3,86,0.00,,,0.00,WUHU216HW,2013-02-05 17:00:00,
2013-02-05 11:05:00,20.9,17.0,29.29,SSW,203,5.1,7.4,85,0.00,,,0.00,WUHU216HW,2013-02-05 17:05:00,
2013-02-05 11:10:00,20.9,17.0,29.29,SW,225,5.4,8.1,85,0.00,,,0.00,WUHU216HW,2013-02-05 17:10:00,
2013-02-05 11:15:00,20.9,17.0,29.29,SW,225,6.0,8.1,85,0.00,,,0.00,WUHU216HW,2013-02-05 17:15:00,
2013-02-05 11:20:00,21.1,17.2,29.29,SSW,203,3.4,8.1,85,0.00,,,0.00,WUHU216HW,2013-02-05 17:20:00,
2013-02-05 11:25:00,21.2,17.4,29.29,SW,225,3.8,7.6,85,0.00,,,0.00,WUHU216HW,2013-02-05 17:25:00,
2013-02-05 11:30:00,21.4,17.6,29.29,WSW,248,4.5,7.6,85,0.00,,,0.00,WUHU216HW,2013-02-05 17:30:00,
2013-02-05 11:35:00,21.4,17.3,29.28,SW,225,5.6,9.2,84,0.00,,,0.00,WUHU216HW,2013-02-05 17:35:00,
2013-02-05 11:40:00,21.6,17.7,29.28,WSW,248,6.3,9.2,85,0.00,,,0.00,WUHU216HW,2013-02-05 17:40:00,
2013-02-05 11:45:00,21.6,17.7,29.28,WSW,248,5.1,8.9,85,0.00,,,0.00,WUHU216HW,2013-02-05 17:45:00,
2013-02-05 11:50:00,21.8,17.9,29.28,SW,225,2.5,8.9,85,0.00,,,0.00,WUHU216HW,2013-02-05 17:50:00,
2013-02-05 11:55:00,22.0,17.8,29.28,SW,225,4.7,9.4,84,0.00,,,0.00,WUHU216HW,2013-02-05 17:55:00,
2013-02-05 12:00:00,22.0,17.8,29.28,West,270,4.7,9.4,84,0.00,,,0.00,WUHU216HW,2013-02-05 18:00:00,
2013-02-05 12:05:00,22.0,17.8,29.28,SW,225,3.6,8.3,84,0.00,,,0.00,WUHU216HW,2013-02-05 18:05:00,
2013-02-05 12:10:00,22.1,18.3,29.28,WSW,248,1.1,8.3,85,0.00,,,0.00,WUHU216HW,2013-02-05 18:10:00,
2013-02-05 12:15:00,22.7,18.5,29.28,WSW,248,8.1,8.1,84,0.00,,,0.00,WUHU216HW,2013-02-05 18:15:00,
2013-02-05 12:20:00,22.7,18.5,29.27,SW,225,6.3,8.1,84,0.00,,,0.00,WUHU216HW,2013-02-05 18:20:00,
2013-02-05 12:25:00,22.7,18.3,29.27,WSW,248,7.6,9.2,83,0.00,,,0.00,WUHU216HW,2013-02-05 18:25:00,
2013-02-05 12:30:00,23.0,18.6,29.27,SW,225,4.7,9.2,83,0.00,,,0.00,WUHU216HW,2013-02-05 18:30:00,
2013-02-05 12:35:00,23.4,18.7,29.27,West,270,5.4,8.5,82,0.00,,,0.00,WUHU216HW,2013-02-05 18:35:00,
2013-02-05 12:40:00,23.8,19.1,29.28,SW,225,1.1,6.3,82,0.00,,,0.00,WUHU216HW,2013-02-05 18:40:00,
2013-02-05 12:45:00,24.1,19.2,29.28,WSW,248,3.4,8.5,81,0.00,,,0.00,WUHU216HW,2013-02-05 18:45:00,
2013-02-05 12:50:00,24.1,19.2,29.28,WSW,248,3.4,8.5,81,0.00,,,0.00,WUHU216HW,2013-02-05 18:50:00,
2013-02-05 12:55:00,24.3,19.4,29.29,WSW,248,5.1,7.4,81,0.00,,,0.00,WUHU216HW,2013-02-05 18:55:00,
2013-02-05 13:00:00,24.5,19.5,29.28,West,270,4.7,6.7,81,0.00,,,0.00,WUHU216HW,2013-02-05 19:00:00,
2013-02-05 13:05:00,24.5,19.5,29.29,West,270,5.4,6.7,81,0.00,,,0.00,WUHU216HW,2013-02-05 19:05:00,
2013-02-05 13:10:00,24.3,19.4,29.29,WSW,248,6.9,6.9,81,0.00,,,0.00,WUHU216HW,2013-02-05 19:10:00,
2013-02-05 13:15:00,24.3,19.4,29.29,SW,225,4.0,6.9,81,0.00,,,0.00,WUHU216HW,2013-02-05 19:15:00,
2013-02-05 13:20:00,24.3,19.4,29.29,North,0,2.9,6.9,81,0.00,,,0.00,WUHU216HW,2013-02-05 19:20:00,
2013-02-05 13:25:00,24.5,19.5,29.29,West,270,2.5,6.3,81,0.00,,,0.00,WUHU216HW,2013-02-05 19:25:00,
2013-02-05 13:30:00,24.8,19.9,29.29,SW,225,3.4,7.4,81,0.00,,,0.00,WUHU216HW,2013-02-05 19:30:00,
2013-02-05 13:35:00,25.0,20.1,29.30,SW,225,2.5,7.4,81,0.00,,,0.00,WUHU216HW,2013-02-05 19:35:00,
2013-02-05 13:40:00,25.2,20.0,29.30,SW,225,3.4,4.7,80,0.00,,,0.00,WUHU216HW,2013-02-05 19:40:00,
2013-02-05 13:45:00,25.2,20.3,29.30,WNW,293,5.4,5.4,81,0.00,,,0.00,WUHU216HW,2013-02-05 19:45:00,
2013-02-05 13:50:00,25.6,20.5,29.30,West,270,3.6,8.7,81,0.00,,,0.00,WUHU216HW,2013-02-05 19:50:00,
2013-02-05 13:55:00,25.7,20.4,29.30,West,270,4.7,8.7,80,0.00,,,0.00,WUHU216HW,2013-02-05 19:55:00,
2013-02-05 14:00:00,25.9,20.9,29.30,NW,315,5.6,8.1,81,0.00,,,0.00,WUHU216HW,2013-02-05 20:00:00,
2013-02-05 14:05:00,26.3,21.5,29.30,West,270,2.9,7.4,82,0.00,,,0.00,WUHU216HW,2013-02-05 20:05:00,
2013-02-05 14:10:00,26.3,21.3,29.30,NW,315,4.7,7.2,81,0.00,,,0.00,WUHU216HW,2013-02-05 20:10:00,
2013-02-05 14:15:00,26.5,21.3,29.30,NW,315,2.5,7.2,81,0.00,,,0.00,WUHU216HW,2013-02-05 20:15:00,
2013-02-05 14:20:00,26.6,21.5,29.30,NNW,338,6.0,6.0,81,0.00,,,0.00,WUHU216HW,2013-02-05 20:20:00,
2013-02-05 14:25:00,26.6,21.5,29.31,NW,315,3.8,6.9,81,0.00,,,0.00,WUHU216HW,2013-02-05 20:25:00,
2013-02-05 14:30:00,26.8,21.7,29.31,WNW,293,4.7,9.4,81,0.00,,,0.00,WUHU216HW,2013-02-05 20:30:00,
2013-02-05 14:35:00,26.8,21.7,29.31,NW,315,7.2,9.4,81,0.00,,,0.00,WUHU216HW,2013-02-05 20:35:00,
2013-02-05 14:40:00,27.0,21.9,29.32,West,270,4.0,10.5,81,0.00,,,0.00,WUHU216HW,2013-02-05 20:40:00,
2013-02-05 14:45:00,27.0,21.9,29.32,WNW,293,8.5,10.5,81,0.00,,,0.00,WUHU216HW,2013-02-05 20:45:00,
2013-02-05 14:50:00,26.8,21.7,29.32,NW,315,5.1,10.3,81,0.00,,,0.00,WUHU216HW,2013-02-05 20:50:00,
2013-02-05 14:55:00,26.8,22.0,29.32,WSW,248,4.7,10.3,82,0.00,,,0.00,WUHU216HW,2013-02-05 20:55:00,
2013-02-05 15:00:00,27.0,22.1,29.33,NW,315,8.7,8.7,82,0.00,,,0.00,WUHU216HW,2013-02-05 21:00:00,
2013-02-05 15:05:00,27.0,22.1,29.33,WNW,293,6.7,8.7,82,0.00,,,0.00,WUHU216HW,2013-02-05 21:05:00,
2013-02-05 15:10:00,27.0,22.1,29.33,NW,315,3.8,8.7,82,0.00,,,0.00,WUHU216HW,2013-02-05 21:10:00,
2013-02-05 15:15:00,27.0,22.1,29.33,West,270,6.3,7.6,82,0.00,,,0.00,WUHU216HW,2013-02-05 21:15:00,
2013-02-05 15:20:00,27.0,22.1,29.33,NW,315,6.9,6.9,82,0.00,,,0.00,WUHU216HW,2013-02-05 21:20:00,
2013-02-05 15:25:00,26.8,22.0,29.34,NW,315,2.9,7.6,82,0.00,,,0.00,WUHU216HW,2013-02-05 21:25:00,
2013-02-05 15:30:00,26.8,22.0,29.34,NW,315,5.4,8.1,82,0.00,,,0.00,WUHU216HW,2013-02-05 21:30:00,
2013-02-05 15:35:00,26.8,22.3,29.34,NW,315,9.8,9.8,83,0.00,,,0.00,WUHU216HW,2013-02-05 21:35:00,
2013-02-05 15:40:00,26.6,22.2,29.35,WNW,293,6.9,9.8,83,0.00,,,0.00,WUHU216HW,2013-02-05 21:40:00,
2013-02-05 15:45:00,26.6,22.2,29.35,NNW,338,6.9,9.8,83,0.00,,,0.00,WUHU216HW,2013-02-05 21:45:00,
2013-02-05 15:50:00,26.5,22.0,29.35,NW,315,4.0,7.6,83,0.00,,,0.00,WUHU216HW,2013-02-05 21:50:00,
2013-02-05 15:55:00,26.5,22.0,29.35,NW,315,2.9,7.6,83,0.00,,,0.00,WUHU216HW,2013-02-05 21:55:00,
2013-02-05 16:00:00,26.6,22.2,29.35,NNW,338,5.4,5.4,83,0.00,,,0.00,WUHU216HW,2013-02-05 22:00:00,
2013-02-05 16:05:00,26.6,22.2,29.36,NW,315,3.1,5.4,83,0.00,,,0.00,WUHU216HW,2013-02-05 22:05:00,
2013-02-05 16:10:00,26.5,22.2,29.36,NNW,338,3.4,5.4,84,0.00,,,0.00,WUHU216HW,2013-02-05 22:10:00,
2013-02-05 16:15:00,26.5,22.0,29.36,NW,315,6.3,8.5,83,0.00,,,0.00,WUHU216HW,2013-02-05 22:15:00,
2013-02-05 16:20:00,26.3,21.8,29.37,NW,315,4.3,8.5,83,0.00,,,0.00,WUHU216HW,2013-02-05 22:20:00,
2013-02-05 16:25:00,26.3,21.8,29.37,NNW,338,4.5,6.3,83,0.00,,,0.00,WUHU216HW,2013-02-05 22:25:00,
2013-02-05 16:30:00,26.3,22.1,29.37,NW,315,2.7,5.4,84,0.00,,,0.00,WUHU216HW,2013-02-05 22:30:00,
2013-02-05 16:35:00,26.3,22.1,29.37,NNW,338,3.4,7.4,84,0.00,,,0.00,WUHU216HW,2013-02-05 22:35:00,
2013-02-05 16:40:00,26.3,22.1,29.38,WNW,293,6.3,7.4,84,0.00,,,0.00,WUHU216HW,2013-02-05 22:40:00,
2013-02-05 16:45:00,26.1,21.9,29.38,North,0,4.0,7.4,84,0.00,,,0.00,WUHU216HW,2013-02-05 22:45:00,
2013-02-05 16:50:00,25.9,21.7,29.39,North,0,7.6,7.6,84,0.00,,,0.00,WUHU216HW,2013-02-05 22:50:00,
2013-02-05 16:55:00,25.7,21.2,29.39,NNW,338,6.0,9.2,83,0.00,,,0.00,WUHU216HW,2013-02-05 22:55:00,
2013-02-05 17:00:00,25.6,20.8,29.39,NNW,338,5.4,9.2,82,0.00,,,0.00,WUHU216HW,2013-02-05 23:00:00,
2013-02-05 17:05:00,25.6,20.8,29.40,NNW,338,9.2,9.2,82,0.00,,,0.00,WUHU216HW,2013-02-05 23:05:00,
2013-02-05 17:10:00,25.6,20.8,29.40,NNW,338,5.4,9.2,82,0.00,,,0.00,WUHU216HW,2013-02-05 23:10:00,
2013-02-05 17:15:00,25.4,20.3,29.40,NW,315,7.4,9.8,81,0.00,,,0.00,WUHU216HW,2013-02-05 23:15:00,
2013-02-05 17:20:00,25.2,20.0,29.41,West,270,6.0,9.8,80,0.00,,,0.00,WUHU216HW,2013-02-05 23:20:00,
2013-02-05 17:25:00,25.2,20.0,29.41,NNW,338,2.9,9.2,80,0.00,,,0.00,WUHU216HW,2013-02-05 23:25:00,
2013-02-05 17:30:00,25.2,20.3,29.42,WNW,293,8.5,9.2,81,0.00,,,0.00,WUHU216HW,2013-02-05 23:30:00,
2013-02-05 17:35:00,25.0,19.8,29.42,NNW,338,5.4,8.5,80,0.00,,,0.00,WUHU216HW,2013-02-05 23:35:00,
2013-02-05 17:40:00,25.0,19.8,29.43,NW,315,4.7,8.5,80,0.00,,,0.00,WUHU216HW,2013-02-05 23:40:00,
2013-02-05 17:45:00,24.8,19.6,29.43,NW,315,4.0,9.8,80,0.00,,,0.00,WUHU216HW,2013-02-05 23:45:00,
2013-02-05 17:50:00,24.8,19.3,29.43,NW,315,9.2,10.7,79,0.00,,,0.00,WUHU216HW,2013-02-05 23:50:00,
2013-02-05 17:55:00,24.8,19.3,29.44,NW,315,6.9,13.4,79,0.00,,,0.00,WUHU216HW,2013-02-05 23:55:00,
2013-02-05 18:00:00,24.8,19.3,29.44,North,0,6.3,13.4,79,0.00,,,0.00,WUHU216HW,2013-02-06 00:00:00,
2013-02-05 18:05:00,24.7,19.1,29.44,NNW,338,3.8,10.5,79,0.00,,,0.00,WUHU216HW,2013-02-06 00:05:00,
2013-02-05 18:10:00,24.5,18.9,29.45,NW,315,4.7,7.6,79,0.00,,,0.00,WUHU216HW,2013-02-06 00:10:00,
2013-02-05 18:15:00,24.5,18.9,29.45,NNW,338,5.6,6.9,79,0.00,,,0.00,WUHU216HW,2013-02-06 00:15:00,
2013-02-05 18:20:00,24.3,19.1,29.46,NW,315,4.0,6.9,80,0.00,,,0.00,WUHU216HW,2013-02-06 00:20:00,
2013-02-05 18:25:00,24.1,18.9,29.46,NW,315,5.6,7.2,80,0.00,,,0.00,WUHU216HW,2013-02-06 00:25:00,
2013-02-05 18:30:00,24.1,18.9,29.47,NW,315,4.9,7.2,80,0.00,,,0.00,WUHU216HW,2013-02-06 00:30:00,
2013-02-05 18:35:00,24.1,18.9,29.47,NNW,338,5.1,6.7,80,0.00,,,0.00,WUHU216HW,2013-02-06 00:35:00,
2013-02-05 18:40:00,23.9,18.7,29.47,NNW,338,5.6,7.6,80,0.00,,,0.00,WUHU216HW,2013-02-06 00:40:00,
2013-02-05 18:45:00,23.8,18.3,29.47,WNW,293,5.8,10.5,79,0.00,,,0.00,WUHU216HW,2013-02-06 00:45:00,
2013-02-05 18:50:00,23.6,17.7,29.48,NNW,338,5.1,10.5,78,0.00,,,0.00,WUHU216HW,2013-02-06 00:50:00,
2013-02-05 18:55:00,23.4,17.6,29.48,NNW,338,5.4,12.8,78,0.00,,,0.00,WUHU216HW,2013-02-06 00:55:00,
2013-02-05 19:00:00,23.2,17.4,29.48,NNW,338,4.3,12.8,78,0.00,,,0.00,WUHU216HW,2013-02-06 01:00:00,
2013-02-05 19:05:00,23.2,17.7,29.49,NW,315,6.3,9.8,79,0.00,,,0.00,WUHU216HW,2013-02-06 01:05:00,
2013-02-05 19:10:00,23.0,17.6,29.48,NNW,338,5.4,8.9,79,0.00,,,0.00,WUHU216HW,2013-02-06 01:10:00,
2013-02-05 19:15:00,22.9,17.4,29.49,NW,315,7.8,7.8,79,0.00,,,0.00,WUHU216HW,2013-02-06 01:15:00,
2013-02-05 19:20:00,22.9,17.4,29.49,NW,315,6.3,8.5,79,0.00,,,0.00,WUHU216HW,2013-02-06 01:20:00,
2013-02-05 19:25:00,22.7,17.2,29.49,NW,315,4.7,8.5,79,0.00,,,0.00,WUHU216HW,2013-02-06 01:25:00,
2013-02-05 19:30:00,22.7,17.2,29.49,NNW,338,3.8,7.6,79,0.00,,,0.00,WUHU216HW,2013-02-06 01:30:00,
2013-02-05 19:35:00,22.7,17.2,29.50,WNW,293,4.7,8.5,79,0.00,,,0.00,WUHU216HW,2013-02-06 01:35:00,
2013-02-05 19:40:00,22.7,17.2,29.50,NNW,338,5.8,8.5,79,0.00,,,0.00,WUHU216HW,2013-02-06 01:40:00,
2013-02-05 19:45:00,22.5,17.0,29.51,WNW,293,6.9,7.2,79,0.00,,,0.00,WUHU216HW,2013-02-06 01:45:00,
2013-02-05 19:50:00,22.5,16.7,29.51,NNW,338,6.9,9.2,78,0.00,,,0.00,WUHU216HW,2013-02-06 01:50:00,
2013-02-05 19:55:00,22.3,16.2,29.51,West,270,6.3,9.2,77,0.00,,,0.00,WUHU216HW,2013-02-06 01:55:00,
2013-02-05 20:00:00,22.3,16.2,29.51,NNW,338,5.8,9.8,77,0.00,,,0.00,WUHU216HW,2013-02-06 02:00:00,
2013-02-05 20:05:00,22.3,16.2,29.52,NNW,338,8.5,9.8,77,0.00,,,0.00,WUHU216HW,2013-02-06 02:05:00,
2013-02-05 20:10:00,22.1,16.0,29.51,NNW,338,6.3,9.8,77,0.00,,,0.00,WUHU216HW,2013-02-06 02:10:00,
2013-02-05 20:15:00,22.1,16.0,29.52,NNW,338,6.3,8.5,77,0.00,,,0.00,WUHU216HW,2013-02-06 02:15:00,
2013-02-05 20:20:00,22.1,16.0,29.52,NNW,338,7.6,12.8,77,0.00,,,0.00,WUHU216HW,2013-02-06 02:20:00,
2013-02-05 20:25:00,22.0,15.9,29.53,NW,315,6.0,12.8,77,0.00,,,0.00,WUHU216HW,2013-02-06 02:25:00,
2013-02-05 20:30:00,22.0,15.9,29.53,NW,315,8.7,8.7,77,0.00,,,0.00,WUHU216HW,2013-02-06 02:30:00,
2013-02-05 20:35:00,22.0,15.9,29.54,NW,315,8.5,8.7,77,0.00,,,0.00,WUHU216HW,2013-02-06 02:35:00,
2013-02-05 20:40:00,22.0,15.9,29.53,NW,315,5.1,9.4,77,0.00,,,0.00,WUHU216HW,2013-02-06 02:40:00,
2013-02-05 20:45:00,22.0,15.2,29.54,NW,315,7.8,9.4,75,0.00,,,0.00,WUHU216HW,2013-02-06 02:45:00,
2013-02-05 20:50:00,22.0,15.2,29.54,NW,315,4.9,7.8,75,0.00,,,0.00,WUHU216HW,2013-02-06 02:50:00,
2013-02-05 20:55:00,21.8,15.3,29.54,NW,315,6.5,6.9,76,0.00,,,0.00,WUHU216HW,2013-02-06 02:55:00,
2013-02-05 21:00:00,21.8,15.3,29.54,NW,315,3.4,7.8,76,0.00,,,0.00,WUHU216HW,2013-02-06 03:00:00,
2013-02-05 21:05:00,21.6,15.5,29.54,NW,315,3.6,7.8,77,0.00,,,0.00,WUHU216HW,2013-02-06 03:05:00,
2013-02-05 21:10:00,21.6,15.1,29.55,NW,315,5.8,5.8,76,0.00,,,0.00,WUHU216HW,2013-02-06 03:10:00,
2013-02-05 21:15:00,21.6,15.1,29.54,NW,315,5.4,7.4,76,0.00,,,0.00,WUHU216HW,2013-02-06 03:15:00,
2013-02-05 21:20:00,21.6,14.9,29.54,NNW,338,2.2,7.4,75,0.00,,,0.00,WUHU216HW,2013-02-06 03:20:00,
2013-02-05 21:25:00,21.4,14.7,29.54,NNW,338,2.0,4.7,75,0.00,,,0.00,WUHU216HW,2013-02-06 03:25:00,
2013-02-05 21:30:00,21.2,14.2,29.54,NNW,338,1.6,3.4,74,0.00,,,0.00,WUHU216HW,2013-02-06 03:30:00,
2013-02-05 21:35:00,21.1,14.1,29.55,NW,315,2.5,2.9,74,0.00,,,0.00,WUHU216HW,2013-02-06 03:35:00,
2013-02-05 21:40:00,20.9,13.9,29.55,NNW,338,2.5,2.9,74,0.00,,,0.00,WUHU216HW,2013-02-06 03:40:00,
2013-02-05 21:45:00,20.7,13.7,29.56,NNW,338,2.7,4.7,74,0.00,,,0.00,WUHU216HW,2013-02-06 03:45:00,
2013-02-05 21:50:00,20.7,13.7,29.56,NW,315,2.5,4.7,74,0.00,,,0.00,WUHU216HW,2013-02-06 03:50:00,
2013-02-05 21:55:00,20.7,13.7,29.56,NW,315,3.6,4.7,74,0.00,,,0.00,WUHU216HW,2013-02-06 03:55:00,
2013-02-05 22:00:00,20.5,13.5,29.56,NNW,338,1.1,7.2,74,0.00,,,0.00,WUHU216HW,2013-02-06 04:00:00,
2013-02-05 22:05:00,20.5,13.8,29.56,NW,315,2.5,7.2,75,0.00,,,0.00,WUHU216HW,2013-02-06 04:05:00,
2013-02-05 22:10:00,20.3,13.9,29.57,NNW,338,3.6,3.6,76,0.00,,,0.00,WUHU216HW,2013-02-06 04:10:00,
2013-02-05 22:15:00,20.2,13.7,29.57,NW,315,3.4,4.5,76,0.00,,,0.00,WUHU216HW,2013-02-06 04:15:00,
2013-02-05 22:20:00,20.0,13.5,29.57,NW,315,2.0,4.5,76,0.00,,,0.00,WUHU216HW,2013-02-06 04:20:00,
2013-02-05 22:25:00,19.8,13.3,29.56,NW,315,3.6,3.8,76,0.00,,,0.00,WUHU216HW,2013-02-06 04:25:00,
2013-02-05 22:30:00,19.4,13.0,29.57,NW,315,3.8,3.8,76,0.00,,,0.00,WUHU216HW,2013-02-06 04:30:00,
2013-02-05 22:35:00,19.1,12.7,29.57,NNW,338,1.8,4.3,76,0.00,,,0.00,WUHU216HW,2013-02-06 04:35:00,
2013-02-05 22:40:00,18.9,12.8,29.57,NW,315,2.2,4.3,77,0.00,,,0.00,WUHU216HW,2013-02-06 04:40:00,
2013-02-05 22:45:00,18.4,12.2,29.57,NNW,338,2.2,3.4,77,0.00,,,0.00,WUHU216HW,2013-02-06 04:45:00,
2013-02-05 22:50:00,18.0,11.9,29.57,NW,315,2.5,2.5,77,0.00,,,0.00,WUHU216HW,2013-02-06 04:50:00,
2013-02-05 22:55:00,17.6,11.5,29.57,NW,315,2.7,4.0,77,0.00,,,0.00,WUHU216HW,2013-02-06 04:55:00,
2013-02-05 23:00:00,17.6,11.5,29.57,NW,315,3.1,4.0,77,0.00,,,0.00,WUHU216HW,2013-02-06 05:00:00,
2013-02-05 23:05:00,17.3,11.5,29.57,NW,315,2.5,3.8,78,0.00,,,0.00,WUHU216HW,2013-02-06 05:05:00,
2013-02-05 23:10:00,16.7,11.0,29.58,NW,315,2.5,3.1,78,0.00,,,0.00,WUHU216HW,2013-02-06 05:10:00,
2013-02-05 23:15:00,16.2,10.5,29.58,NNW,338,2.7,2.7,78,0.00,,,0.00,WUHU216HW,2013-02-06 05:15:00,
2013-02-05 23:20:00,16.2,10.5,29.58,NNW,338,1.8,4.3,78,0.00,,,0.00,WUHU216HW,2013-02-06 05:20:00,
2013-02-05 23:25:00,16.0,10.4,29.58,NW,315,1.8,4.3,78,0.00,,,0.00,WUHU216HW,2013-02-06 05:25:00,
2013-02-05 23:30:00,15.5,9.6,29.58,NNW,338,1.1,3.1,77,0.00,,,0.00,WUHU216HW,2013-02-06 05:30:00,
2013-02-05 23:35:00,14.9,9.0,29.59,NW,315,1.6,1.8,77,0.00,,,0.00,WUHU216HW,2013-02-06 05:35:00,
2013-02-05 23:40:00,14.4,8.5,29.59,NW,315,1.8,2.5,77,0.00,,,0.00,WUHU216HW,2013-02-06 05:40:00,
2013-02-05 23:45:00,14.0,8.5,29.60,NW,315,2.0,2.5,78,0.00,,,0.00,WUHU216HW,2013-02-06 05:45:00,
2013-02-05 23:50:00,14.0,8.5,29.60,WNW,293,2.2,2.9,78,0.00,,,0.00,WUHU216HW,2013-02-06 05:50:00,
2013-02-05 23:55:00,14.0,8.7,29.61,NW,315,1.6,2.9,79,0.00,,,0.00,WUHU216HW,2013-02-06 05:55:00,